Gao Xin 16 — 9LY2549 — position and weather

sailwx.info

Track history (hours):
 
Tides and Currents Weather Stations Pressure Air Temp Water Temp Dewpoint Dewpoint Depression Visibility Wind Speed Wind Dir Waves Ship Positions

Gao Xin 16

Last reported at 2017-Dec-02 11:18 UTC. Time now 2017-Dec-11 01:51 UTC.
Position N 34°31' E 130°50'.
Warning: this ship's position is 8 days out of date.

Length 145 m; draft 5.1 m.

Type: Cargo ship. MMSI: 667003352.

Date/timePositionNaut miles runAvg speedWind from/ knotsBaromVisibWave heightAir tempDewpointWater temp
2017-Dec-02 11:18N 34°31' E 130°50'311.1
2017-Dec-02 11:00N 34°28' E 130°49'611.1
2017-Dec-02 10:28N 34°22' E 130°48'611.3
2017-Dec-02 09:58N 34°16' E 130°49'511.0
2017-Dec-02 09:30N 34°11' E 130°49'510.6
2017-Dec-02 09:00N 34°06' E 130°50'510.6
2017-Dec-02 08:30N 34°01' E 130°52'5 9.7
2017-Dec-02 08:00N 33°56' E 130°53'3 6.0
2017-Dec-02 07:30N 33°57' E 130°56'4 8.1
2017-Dec-02 07:00N 33°59' E 131°00'510.9
2017-Dec-02 06:30N 33°56' E 131°06'611.4
2017-Dec-02 06:00N 33°52' E 131°11'611.2
2017-Dec-02 05:30N 33°51' E 131°18'611.2
2017-Dec-02 05:00N 33°50' E 131°24'510.9
2017-Dec-02 04:30N 33°49' E 131°31'510.9
2017-Dec-02 04:00N 33°47' E 131°37'610.3
2017-Dec-02 03:28N 33°46' E 131°44'2710.8
2017-Dec-02 01:00N 33°44' E 132°16'711.4
2017-Dec-02 00:21N 33°46' E 132°24'510.9
2017-Dec-01 23:53N 33°49' E 132°30'510.8
2017-Dec-01 23:24N 33°52' E 132°35'4 9.8
2017-Dec-01 22:57N 33°55' E 132°38'4 8.8
2017-Dec-01 22:30N 33°57' E 132°42'  
2017-Nov-25 20:13N 33°60' E 132°45'3 9.2
2017-Nov-25 19:55N 33°57' E 132°43'4 9.1
2017-Nov-25 19:27N 33°55' E 132°39'6 9.6
2017-Nov-25 18:51N 33°51' E 132°34'4 9.7
2017-Nov-25 18:25N 33°48' E 132°30'30 9.6
2017-Nov-25 15:19N 33°44' E 131°55'3 9.8
2017-Nov-25 14:58N 33°44' E 131°51'5 9.8
2017-Nov-25 14:30N 33°45' E 131°45'5 9.4
2017-Nov-25 14:00N 33°46' E 131°40'5 9.6
2017-Nov-25 13:30N 33°47' E 131°34'5 9.7
2017-Nov-25 13:01N 33°48' E 131°28'5 9.6
2017-Nov-25 12:30N 33°49' E 131°22'5 9.6
2017-Nov-25 12:00N 33°50' E 131°17'5 9.7
2017-Nov-25 11:31N 33°51' E 131°11'5 9.8
2017-Nov-25 11:00N 33°54' E 131°07'510.0
2017-Nov-25 10:30N 33°58' E 131°02'4 8.8
2017-Nov-25 10:01N 33°57' E 130°57'3 6.9
2017-Nov-25 09:30N 33°55' E 130°53'5 9.0
2017-Nov-25 09:01N 33°59' E 130°50'4 8.0
2017-Nov-25 08:31N 34°02' E 130°48'5 9.7
2017-Nov-25 08:01N 34°03' E 130°42'510.0
2017-Nov-25 07:31N 34°04' E 130°36'5 9.9
2017-Nov-25 07:00N 34°04' E 130°30'5 9.9
2017-Nov-25 06:31N 34°05' E 130°24'510.0
2017-Nov-25 06:00N 34°05' E 130°18'5 9.9
2017-Nov-25 05:30N 34°06' E 130°12'  
Track history (hours):
 
Tides and Currents Weather Stations Pressure Air Temp Water Temp Dewpoint Dewpoint Depression Visibility Wind Speed Wind Dir Waves Ship Positions

Gao Xin 16

Last reported at 2017-Dec-02 11:18 UTC. Time now 2017-Dec-11 01:51 UTC.
Position N 34°31' E 130°50'.
Warning: this ship's position is 8 days out of date.

Length 145 m; draft 5.1 m.

Type: Cargo ship. MMSI: 667003352.

Date/timePositionNaut miles runAvg speedWind from/ knotsBaromVisibWave heightAir tempDewpointWater temp
2017-Dec-02 11:18N 34°31' E 130°50'311.1
2017-Dec-02 11:00N 34°28' E 130°49'611.1
2017-Dec-02 10:28N 34°22' E 130°48'611.3
2017-Dec-02 09:58N 34°16' E 130°49'511.0
2017-Dec-02 09:30N 34°11' E 130°49'510.6
2017-Dec-02 09:00N 34°06' E 130°50'510.6
2017-Dec-02 08:30N 34°01' E 130°52'5 9.7
2017-Dec-02 08:00N 33°56' E 130°53'3 6.0
2017-Dec-02 07:30N 33°57' E 130°56'4 8.1
2017-Dec-02 07:00N 33°59' E 131°00'510.9
2017-Dec-02 06:30N 33°56' E 131°06'611.4
2017-Dec-02 06:00N 33°52' E 131°11'611.2
2017-Dec-02 05:30N 33°51' E 131°18'611.2
2017-Dec-02 05:00N 33°50' E 131°24'510.9
2017-Dec-02 04:30N 33°49' E 131°31'510.9
2017-Dec-02 04:00N 33°47' E 131°37'610.3
2017-Dec-02 03:28N 33°46' E 131°44'2710.8
2017-Dec-02 01:00N 33°44' E 132°16'711.4
2017-Dec-02 00:21N 33°46' E 132°24'510.9
2017-Dec-01 23:53N 33°49' E 132°30'510.8
2017-Dec-01 23:24N 33°52' E 132°35'4 9.8
2017-Dec-01 22:57N 33°55' E 132°38'4 8.8
2017-Dec-01 22:30N 33°57' E 132°42'  
2017-Nov-25 20:13N 33°60' E 132°45'3 9.2
2017-Nov-25 19:55N 33°57' E 132°43'4 9.1
2017-Nov-25 19:27N 33°55' E 132°39'6 9.6
2017-Nov-25 18:51N 33°51' E 132°34'4 9.7
2017-Nov-25 18:25N 33°48' E 132°30'30 9.6
2017-Nov-25 15:19N 33°44' E 131°55'3 9.8
2017-Nov-25 14:58N 33°44' E 131°51'5 9.8
2017-Nov-25 14:30N 33°45' E 131°45'5 9.4
2017-Nov-25 14:00N 33°46' E 131°40'5 9.6
2017-Nov-25 13:30N 33°47' E 131°34'5 9.7
2017-Nov-25 13:01N 33°48' E 131°28'5 9.6
2017-Nov-25 12:30N 33°49' E 131°22'5 9.6
2017-Nov-25 12:00N 33°50' E 131°17'5 9.7
2017-Nov-25 11:31N 33°51' E 131°11'5 9.8
2017-Nov-25 11:00N 33°54' E 131°07'510.0
2017-Nov-25 10:30N 33°58' E 131°02'4 8.8
2017-Nov-25 10:01N 33°57' E 130°57'3 6.9
2017-Nov-25 09:30N 33°55' E 130°53'5 9.0
2017-Nov-25 09:01N 33°59' E 130°50'4 8.0
2017-Nov-25 08:31N 34°02' E 130°48'5 9.7
2017-Nov-25 08:01N 34°03' E 130°42'510.0
2017-Nov-25 07:31N 34°04' E 130°36'5 9.9
2017-Nov-25 07:00N 34°04' E 130°30'5 9.9
2017-Nov-25 06:31N 34°05' E 130°24'510.0
2017-Nov-25 06:00N 34°05' E 130°18'5 9.9
2017-Nov-25 05:30N 34°06' E 130°12'  

Dump ship's entire track history